Terminal Aerodrome Forecast
Issued by NWS

Home | Current Version | Previous Version | Text Only | Print | Product List | Glossary On
Versions: 1 2 3 4 5 6 7 8 9 10 11 12 13 14 15 16
000
FTUS43 KIWX 252200 AAA
TAFSBN
TAF AMD
KSBN 252200Z 2522/2618 05012KT 1SM -SN BKN010 OVC015
     FM260100 04011KT P6SM SCT015 BKN045
     FM260600 05004KT P6SM SCT050=

USA.gov is the U.S. government's official web portal to all federal, state and local government web resources and services.